createdAt,value
2018-09-19T00:01:15.756Z,11.72
2018-09-19T00:07:10.740Z,10.78
2018-09-19T00:13:05.782Z,10.78
2018-09-19T00:19:00.758Z,12.66
2018-09-19T00:24:55.746Z,11.77
2018-09-19T00:30:50.765Z,16.03
2018-09-19T00:36:45.770Z,11.84
2018-09-19T00:42:40.759Z,19.17
2018-09-19T00:48:35.798Z,14.13
2018-09-19T00:54:30.754Z,16.31
2018-09-19T01:00:25.800Z,14.66
2018-09-19T01:06:20.797Z,20.42
2018-09-19T01:12:15.841Z,14.62
2018-09-19T01:18:10.808Z,14.63
2018-09-19T01:24:05.800Z,20.57
2018-09-19T01:30:00.804Z,22.81
2018-09-19T01:35:55.807Z,15.74
2018-09-19T01:41:50.800Z,23.83
2018-09-19T01:47:45.798Z,14.25
2018-09-19T01:53:40.863Z,16.81
2018-09-19T01:59:35.812Z,18.56
2018-09-19T02:05:30.888Z,14.41
2018-09-19T02:11:25.848Z,15.07
2018-09-19T02:17:20.837Z,15.15
2018-09-19T02:23:15.826Z,14.57
2018-09-19T02:29:10.813Z,17.75
2018-09-19T02:35:05.816Z,19.45
2018-09-19T02:41:00.898Z,16.52
2018-09-19T02:46:55.899Z,17.56
2018-09-19T02:52:50.848Z,20.15
2018-09-19T02:58:45.852Z,20.41
2018-09-19T03:10:35.904Z,20.16
2018-09-19T03:16:30.959Z,15.12
2018-09-19T03:22:25.887Z,16.79
2018-09-19T03:28:20.852Z,13.95
2018-09-19T03:34:15.875Z,14.26
2018-09-19T03:40:10.887Z,22.64
2018-09-19T03:46:05.923Z,14.1
2018-09-19T03:52:00.884Z,13.49
2018-09-19T03:57:55.877Z,11.02
2018-09-19T04:03:50.962Z,16.47
2018-09-19T04:09:45.895Z,13.95
2018-09-19T04:15:40.903Z,18.19
2018-09-19T04:21:35.912Z,20.11
2018-09-19T04:27:30.940Z,14.41
2018-09-19T04:33:25.902Z,20.75
2018-09-19T04:39:20.916Z,14.88
2018-09-19T04:45:15.989Z,14.69
2018-09-19T04:51:10.935Z,17.97
2018-09-19T04:57:05.902Z,12.41
2018-09-19T05:03:00.936Z,15.43
2018-09-19T05:08:55.933Z,12.93
2018-09-19T05:14:50.965Z,13.62
2018-09-19T05:20:45.972Z,14.64
2018-09-19T05:26:40.927Z,19.17
2018-09-19T05:32:35.938Z,72.82
2018-09-19T05:38:30.950Z,271.11
2018-09-19T05:44:25.942Z,181.32
2018-09-19T05:50:20.937Z,105.35
2018-09-19T05:56:15.950Z,96.09
2018-09-19T06:02:10.963Z,149.93
2018-09-19T06:08:05.973Z,63.58
2018-09-19T06:14:00.951Z,17.68
2018-09-19T06:19:55.957Z,17.94
2018-09-19T06:25:50.969Z,13.15
2018-09-19T06:31:45.957Z,15.5
2018-09-19T06:37:40.979Z,63.48
2018-09-19T06:43:35.975Z,45.59
2018-09-19T06:49:30.980Z,39.06
2018-09-19T06:55:25.989Z,27.79
2018-09-19T07:01:20.975Z,22.01
2018-09-19T07:07:16.029Z,17.49
2018-09-19T07:13:11.031Z,18.15
2018-09-19T07:19:06.010Z,16.32
2018-09-19T07:25:01.043Z,13.64
2018-09-19T07:30:56.105Z,15.87
2018-09-19T07:36:51.023Z,17.39
2018-09-19T07:42:46.020Z,14.63
2018-09-19T07:48:41.019Z,15.86
2018-09-19T07:54:36.141Z,15.56
2018-09-19T08:00:31.090Z,13.12
2018-09-19T08:06:26.023Z,12.34
2018-09-19T08:12:21.044Z,14.13
2018-09-19T08:18:16.081Z,14.28
2018-09-19T08:24:11.037Z,13.17
2018-09-19T08:30:06.060Z,12.42
2018-09-19T08:36:01.076Z,15.32
2018-09-19T08:41:56.071Z,13.17
2018-09-19T08:47:51.084Z,12.93
2018-09-19T08:53:46.097Z,17.05
2018-09-19T08:59:41.112Z,12.73
2018-09-19T09:05:36.088Z,10.43
2018-09-19T09:11:31.065Z,9.57
2018-09-19T09:17:26.071Z,9.93
2018-09-19T09:23:21.060Z,12.52
2018-09-19T09:29:16.082Z,12.13
2018-09-19T09:35:11.085Z,8.91
2018-09-19T09:41:06.108Z,9.53
2018-09-19T09:47:01.115Z,13.56
2018-09-19T09:52:56.122Z,9.79
2018-09-19T09:58:51.089Z,11.42
2018-09-19T10:04:46.127Z,8.06
2018-09-19T10:10:41.140Z,8.46
2018-09-19T10:16:36.112Z,9.89
2018-09-19T10:22:31.120Z,6.71
2018-09-19T10:28:26.091Z,7.25
2018-09-19T10:34:21.202Z,11.07
2018-09-19T10:40:16.129Z,8.73
2018-09-19T10:46:11.141Z,13.49
2018-09-19T10:52:06.157Z,7.97
2018-09-19T10:58:01.135Z,11.33
2018-09-19T11:03:56.155Z,10.91
2018-09-19T11:09:51.151Z,12.5
2018-09-19T11:15:46.146Z,10.11
2018-09-19T11:21:41.150Z,10.62
2018-09-19T11:27:36.191Z,11.74
2018-09-19T11:33:31.250Z,9.63
2018-09-19T11:39:26.164Z,8.19
2018-09-19T11:45:21.169Z,7.94
2018-09-19T11:51:16.201Z,6.9
2018-09-19T11:57:11.222Z,14.19
2018-09-19T12:03:06.185Z,10.94
2018-09-19T12:09:01.170Z,5.58
2018-09-19T12:14:56.189Z,8.31
2018-09-19T12:20:51.197Z,6.29
2018-09-19T12:26:46.196Z,4.47
2018-09-19T12:32:41.230Z,9.74
2018-09-19T12:38:36.238Z,6.5
2018-09-19T12:44:31.220Z,5.14
2018-09-19T12:50:26.292Z,5.5
2018-09-19T12:56:21.235Z,8.64
2018-09-19T13:02:16.215Z,5.74
2018-09-19T13:08:11.238Z,6
2018-09-19T13:14:06.224Z,5.15
2018-09-19T13:20:01.217Z,9.12
2018-09-19T13:25:56.239Z,6.22
2018-09-19T13:31:51.284Z,7.97
2018-09-19T13:37:46.271Z,8.16
2018-09-19T13:43:41.241Z,5.96
2018-09-19T13:49:36.277Z,7.02
2018-09-19T13:55:31.264Z,6.31
2018-09-19T14:01:26.266Z,8.82
2018-09-19T14:07:21.256Z,6.41
2018-09-19T14:13:16.311Z,4
2018-09-19T14:19:11.281Z,6.53
2018-09-19T14:25:06.265Z,6.71
2018-09-19T14:31:01.265Z,4.16
2018-09-19T14:36:56.321Z,8.1
2018-09-19T14:42:51.319Z,5.49
2018-09-19T14:48:46.424Z,5.5
2018-09-19T14:54:41.303Z,9.5
2018-09-19T15:00:36.319Z,5.85
2018-09-19T15:06:31.312Z,8.83
2018-09-19T15:12:26.305Z,14.1
2018-09-19T15:18:21.352Z,8.23
2018-09-19T15:24:16.329Z,5.5
2018-09-19T15:30:11.312Z,7.73
2018-09-19T15:36:06.379Z,8.75
2018-09-19T15:42:01.323Z,7.34
2018-09-19T15:47:56.346Z,8.17
2018-09-19T15:53:51.334Z,7
2018-09-19T15:59:46.331Z,7.71
2018-09-19T16:05:41.411Z,7.93
2018-09-19T16:11:36.363Z,10.54
2018-09-19T16:17:31.352Z,8.23
2018-09-19T16:23:26.352Z,5.8
2018-09-19T16:29:21.353Z,9.81
2018-09-19T16:35:16.362Z,7.7
2018-09-19T16:41:11.361Z,10.48
2018-09-19T16:47:06.402Z,15.62
2018-09-19T16:53:01.512Z,14.05
2018-09-19T16:58:56.381Z,9.8
2018-09-19T17:04:51.461Z,9.16
2018-09-19T17:10:46.386Z,10.06
2018-09-19T17:58:06.434Z,9.99
2018-09-19T17:58:06.463Z,11.73
2018-09-19T17:58:06.474Z,11.73
2018-09-19T17:58:06.555Z,11.73
2018-09-19T17:58:06.565Z,11.73
2018-09-19T17:58:06.581Z,11.73
2018-09-19T17:58:06.637Z,11.73
2018-09-19T17:58:06.639Z,11.73
2018-09-19T18:04:01.425Z,11.38
2018-09-19T18:09:56.459Z,13.49
2018-09-19T18:15:51.416Z,12.43
2018-09-19T18:21:46.432Z,11.38
2018-09-19T18:27:41.575Z,11.73
2018-09-19T18:33:36.420Z,19.92
2018-09-19T18:39:31.472Z,15.56
2018-09-19T18:45:29.800Z,12.59
2018-09-19T18:51:21.437Z,12.19
2018-09-19T18:57:18.588Z,10.1
2018-09-19T19:03:13.425Z,9.5
2018-09-19T19:09:06.458Z,16.16
2018-09-19T19:15:02.454Z,16.97
2018-09-19T19:20:56.476Z,15.65
2018-09-19T19:26:51.479Z,16.57
2018-09-19T19:32:46.482Z,14.06
2018-09-19T19:38:41.480Z,24.77
2018-09-19T19:44:36.495Z,16.71
2018-09-19T19:50:31.495Z,12.61
2018-09-19T19:56:26.485Z,16.29
2018-09-19T20:02:21.487Z,14.71
2018-09-19T20:08:16.545Z,21.42
2018-09-19T20:14:11.496Z,16.93
2018-09-19T20:20:07.304Z,14.62
2018-09-19T20:26:01.500Z,18.07
2018-09-19T20:31:56.551Z,18.96
2018-09-19T20:37:51.795Z,16.36
2018-09-19T20:43:48.996Z,20.18
2018-09-19T20:49:44.412Z,16.53
2018-09-19T20:55:40.570Z,16.22
2018-09-19T21:01:31.550Z,21.06
2018-09-19T21:07:30.599Z,15.77
2018-09-19T21:13:21.558Z,19.91
2018-09-19T21:19:17.645Z,21.26
2018-09-19T21:25:12.661Z,20.28
2018-09-19T21:31:06.565Z,25.34
2018-09-19T21:37:01.554Z,28.09
2018-09-19T21:42:56.561Z,22.54
2018-09-19T21:48:51.576Z,22.4
2018-09-19T21:54:46.589Z,22.95
2018-09-19T22:00:41.884Z,23.33
2018-09-19T22:06:36.693Z,15.45
2018-09-19T22:12:31.575Z,23.72
2018-09-19T22:18:26.571Z,26.19
2018-09-19T22:24:21.587Z,23.9
2018-09-19T22:30:16.585Z,24.15
2018-09-19T22:36:14.985Z,19.36
2018-09-19T22:42:10.646Z,26.12
2018-09-19T22:48:01.604Z,26
2018-09-19T22:54:00.531Z,24.64
2018-09-19T22:59:53.757Z,25.2
2018-09-19T23:05:46.633Z,23.82
2018-09-19T23:11:45.074Z,25.56
2018-09-19T23:17:40.245Z,25.84
2018-09-19T23:23:35.013Z,26.71
2018-09-19T23:29:26.654Z,21.09
2018-09-19T23:35:25.679Z,20.27
2018-09-19T23:41:19.444Z,22.22
2018-09-19T23:47:14.174Z,25.1
2018-09-19T23:53:06.635Z,25.85
2018-09-19T23:59:04.869Z,28.95
